sensor_id;sensor_type;location;lat;lon;timestamp;temperature;humidity
43963;DHT22;29622;45.534;9.242;2022-09-28T00:02:59;16.20;44.50
43963;DHT22;29622;45.534;9.242;2022-09-28T00:14:08;16.30;44.50
43963;DHT22;29622;45.534;9.242;2022-09-28T00:19:11;16.30;44.50
43963;DHT22;29622;45.534;9.242;2022-09-28T00:24:42;16.30;44.70
43963;DHT22;29622;45.534;9.242;2022-09-28T00:30:22;16.20;44.80
43963;DHT22;29622;45.534;9.242;2022-09-28T00:35:23;16.10;45.30
43963;DHT22;29622;45.534;9.242;2022-09-28T00:40:30;16.60;46.50
43963;DHT22;29622;45.534;9.242;2022-09-28T00:46:34;16.70;45.70
43963;DHT22;29622;45.534;9.242;2022-09-28T00:52:26;16.20;46.00
43963;DHT22;29622;45.534;9.242;2022-09-28T00:58:15;16.00;46.60
43963;DHT22;29622;45.534;9.242;2022-09-28T01:03:47;15.70;47.00
43963;DHT22;29622;45.534;9.242;2022-09-28T01:08:54;15.50;47.30
43963;DHT22;29622;45.534;9.242;2022-09-28T01:14:09;15.40;47.60
43963;DHT22;29622;45.534;9.242;2022-09-28T01:19:36;15.50;47.80
43963;DHT22;29622;45.534;9.242;2022-09-28T01:24:48;15.50;48.10
43963;DHT22;29622;45.534;9.242;2022-09-28T01:30:06;15.60;48.00
43963;DHT22;29622;45.534;9.242;2022-09-28T01:35:24;15.50;48.20
43963;DHT22;29622;45.534;9.242;2022-09-28T01:40:27;15.60;48.70
43963;DHT22;29622;45.534;9.242;2022-09-28T01:46:19;16.00;48.40
43963;DHT22;29622;45.534;9.242;2022-09-28T01:51:45;16.00;48.30
43963;DHT22;29622;45.534;9.242;2022-09-28T01:56:53;16.50;48.50
43963;DHT22;29622;45.534;9.242;2022-09-28T02:01:59;17.10;48.10
43963;DHT22;29622;45.534;9.242;2022-09-28T02:07:06;18.10;48.30
43963;DHT22;29622;45.534;9.242;2022-09-28T02:12:15;18.80;48.10
43963;DHT22;29622;45.534;9.242;2022-09-28T02:17:17;19.40;47.30
43963;DHT22;29622;45.534;9.242;2022-09-28T02:32:36;20.00;47.30
43963;DHT22;29622;45.534;9.242;2022-09-28T02:37:40;20.40;46.20
43963;DHT22;29622;45.534;9.242;2022-09-28T02:42:54;20.60;46.10
43963;DHT22;29622;45.534;9.242;2022-09-28T02:48:18;20.70;45.80
43963;DHT22;29622;45.534;9.242;2022-09-28T02:53:40;20.80;45.50
43963;DHT22;29622;45.534;9.242;2022-09-28T02:59:06;21.00;45.50
43963;DHT22;29622;45.534;9.242;2022-09-28T03:04:41;20.90;45.40
43963;DHT22;29622;45.534;9.242;2022-09-28T03:10:01;21.00;45.50
43963;DHT22;29622;45.534;9.242;2022-09-28T03:15:30;21.10;45.30
43963;DHT22;29622;45.534;9.242;2022-09-28T03:20:31;21.40;45.20
43963;DHT22;29622;45.534;9.242;2022-09-28T03:25:33;21.50;45.00
43963;DHT22;29622;45.534;9.242;2022-09-28T03:30:33;21.50;45.10
43963;DHT22;29622;45.534;9.242;2022-09-28T03:35:34;21.40;44.90
43963;DHT22;29622;45.534;9.242;2022-09-28T03:40:35;21.40;44.90
43963;DHT22;29622;45.534;9.242;2022-09-28T03:45:36;21.50;45.00
43963;DHT22;29622;45.534;9.242;2022-09-28T03:50:36;21.40;44.90
43963;DHT22;29622;45.534;9.242;2022-09-28T03:55:37;21.50;44.80
43963;DHT22;29622;45.534;9.242;2022-09-28T04:00:38;21.40;45.00
43963;DHT22;29622;45.534;9.242;2022-09-28T04:05:46;21.40;45.00
43963;DHT22;29622;45.534;9.242;2022-09-28T04:10:47;21.60;44.80
43963;DHT22;29622;45.534;9.242;2022-09-28T04:15:52;21.50;44.80
43963;DHT22;29622;45.534;9.242;2022-09-28T04:21:01;21.60;44.70
43963;DHT22;29622;45.534;9.242;2022-09-28T04:26:16;21.50;44.70
43963;DHT22;29622;45.534;9.242;2022-09-28T04:31:19;21.60;45.20
43963;DHT22;29622;45.534;9.242;2022-09-28T04:36:20;21.50;44.80
43963;DHT22;29622;45.534;9.242;2022-09-28T04:41:21;21.60;44.90
43963;DHT22;29622;45.534;9.242;2022-09-28T04:46:23;21.50;44.70
43963;DHT22;29622;45.534;9.242;2022-09-28T04:51:35;21.40;44.80
43963;DHT22;29622;45.534;9.242;2022-09-28T04:56:36;21.10;45.70
43963;DHT22;29622;45.534;9.242;2022-09-28T05:01:37;21.00;45.60
43963;DHT22;29622;45.534;9.242;2022-09-28T05:06:56;21.00;45.50
43963;DHT22;29622;45.534;9.242;2022-09-28T05:11:58;21.20;45.60
43963;DHT22;29622;45.534;9.242;2022-09-28T05:16:59;21.10;45.60
43963;DHT22;29622;45.534;9.242;2022-09-28T05:22:00;21.10;45.30
43963;DHT22;29622;45.534;9.242;2022-09-28T05:27:05;20.50;45.90
43963;DHT22;29622;45.534;9.242;2022-09-28T05:32:06;20.10;46.10
43963;DHT22;29622;45.534;9.242;2022-09-28T05:37:09;19.90;46.80
43963;DHT22;29622;45.534;9.242;2022-09-28T05:42:10;20.00;46.80
43963;DHT22;29622;45.534;9.242;2022-09-28T05:47:11;20.20;47.00
43963;DHT22;29622;45.534;9.242;2022-09-28T05:52:13;20.90;46.60
43963;DHT22;29622;45.534;9.242;2022-09-28T05:57:13;21.20;45.80
43963;DHT22;29622;45.534;9.242;2022-09-28T06:02:14;20.90;45.90
43963;DHT22;29622;45.534;9.242;2022-09-28T06:07:17;20.90;46.40
43963;DHT22;29622;45.534;9.242;2022-09-28T06:12:18;21.20;46.10
43963;DHT22;29622;45.534;9.242;2022-09-28T06:17:24;21.40;45.80
43963;DHT22;29622;45.534;9.242;2022-09-28T06:22:50;21.60;45.70
43963;DHT22;29622;45.534;9.242;2022-09-28T06:27:59;21.80;45.50
43963;DHT22;29622;45.534;9.242;2022-09-28T06:33:01;21.80;45.30
43963;DHT22;29622;45.534;9.242;2022-09-28T06:38:02;21.60;45.60
43963;DHT22;29622;45.534;9.242;2022-09-28T06:43:06;21.70;45.60
43963;DHT22;29622;45.534;9.242;2022-09-28T06:48:28;21.80;45.50
43963;DHT22;29622;45.534;9.242;2022-09-28T06:53:30;21.80;45.40
43963;DHT22;29622;45.534;9.242;2022-09-28T06:58:52;21.70;45.50
43963;DHT22;29622;45.534;9.242;2022-09-28T07:03:52;21.80;45.60
43963;DHT22;29622;45.534;9.242;2022-09-28T07:09:13;22.00;45.40
43963;DHT22;29622;45.534;9.242;2022-09-28T07:14:32;21.90;45.00
43963;DHT22;29622;45.534;9.242;2022-09-28T07:19:33;21.50;45.50
43963;DHT22;29622;45.534;9.242;2022-09-28T07:24:35;21.50;45.70
43963;DHT22;29622;45.534;9.242;2022-09-28T07:29:54;21.50;45.30
43963;DHT22;29622;45.534;9.242;2022-09-28T07:35:15;21.10;45.10
43963;DHT22;29622;45.534;9.242;2022-09-28T07:40:26;20.80;45.40
43963;DHT22;29622;45.534;9.242;2022-09-28T07:45:47;20.40;45.90
43963;DHT22;29622;45.534;9.242;2022-09-28T07:50:54;20.20;46.20
43963;DHT22;29622;45.534;9.242;2022-09-28T07:56:19;20.10;46.10
43963;DHT22;29622;45.534;9.242;2022-09-28T08:01:49;19.90;46.40
43963;DHT22;29622;45.534;9.242;2022-09-28T08:06:50;19.90;46.80
43963;DHT22;29622;45.534;9.242;2022-09-28T08:11:52;20.10;46.60
43963;DHT22;29622;45.534;9.242;2022-09-28T08:17:17;20.00;46.70
43963;DHT22;29622;45.534;9.242;2022-09-28T08:22:21;19.70;47.00
43963;DHT22;29622;45.534;9.242;2022-09-28T08:27:24;19.40;47.60
43963;DHT22;29622;45.534;9.242;2022-09-28T08:32:25;19.30;48.00
43963;DHT22;29622;45.534;9.242;2022-09-28T08:37:52;19.40;48.10
43963;DHT22;29622;45.534;9.242;2022-09-28T08:59:58;20.20;47.50
43963;DHT22;29622;45.534;9.242;2022-09-28T09:05:11;20.20;47.30
43963;DHT22;29622;45.534;9.242;2022-09-28T09:21:20;20.30;47.50
43963;DHT22;29622;45.534;9.242;2022-09-28T09:36:50;20.30;47.50
43963;DHT22;29622;45.534;9.242;2022-09-28T09:48:28;20.30;47.70
43963;DHT22;29622;45.534;9.242;2022-09-28T09:53:37;20.30;47.60
43963;DHT22;29622;45.534;9.242;2022-09-28T09:58:55;20.30;47.60
43963;DHT22;29622;45.534;9.242;2022-09-28T10:04:40;20.40;47.50
43963;DHT22;29622;45.534;9.242;2022-09-28T10:09:43;20.30;47.60
43963;DHT22;29622;45.534;9.242;2022-09-28T10:15:06;20.70;47.80
43963;DHT22;29622;45.534;9.242;2022-09-28T10:20:17;21.00;47.40
43963;DHT22;29622;45.534;9.242;2022-09-28T10:25:35;21.20;47.10
43963;DHT22;29622;45.534;9.242;2022-09-28T10:30:37;21.20;46.90
43963;DHT22;29622;45.534;9.242;2022-09-28T10:35:42;21.20;46.70
43963;DHT22;29622;45.534;9.242;2022-09-28T10:40:50;20.80;46.80
43963;DHT22;29622;45.534;9.242;2022-09-28T10:46:11;20.50;47.20
43963;DHT22;29622;45.534;9.242;2022-09-28T10:51:15;20.50;47.40
43963;DHT22;29622;45.534;9.242;2022-09-28T10:56:21;20.40;47.40
43963;DHT22;29622;45.534;9.242;2022-09-28T11:01:32;20.20;47.70
43963;DHT22;29622;45.534;9.242;2022-09-28T11:06:38;20.00;48.20
43963;DHT22;29622;45.534;9.242;2022-09-28T11:11:40;19.90;48.80
43963;DHT22;29622;45.534;9.242;2022-09-28T11:16:41;19.90;49.00
43963;DHT22;29622;45.534;9.242;2022-09-28T11:21:43;19.90;49.20
43963;DHT22;29622;45.534;9.242;2022-09-28T11:26:49;19.80;49.30
43963;DHT22;29622;45.534;9.242;2022-09-28T11:32:00;19.90;49.50
43963;DHT22;29622;45.534;9.242;2022-09-28T11:48:02;20.20;49.20
43963;DHT22;29622;45.534;9.242;2022-09-28T11:53:18;20.40;48.90
43963;DHT22;29622;45.534;9.242;2022-09-28T11:58:34;20.50;48.70
43963;DHT22;29622;45.534;9.242;2022-09-28T12:03:51;20.70;48.60
43963;DHT22;29622;45.534;9.242;2022-09-28T12:08:56;20.70;48.50
43963;DHT22;29622;45.534;9.242;2022-09-28T12:14:32;20.70;48.50
43963;DHT22;29622;45.534;9.242;2022-09-28T12:19:57;20.70;48.50
43963;DHT22;29622;45.534;9.242;2022-09-28T12:25:01;20.70;48.30
43963;DHT22;29622;45.534;9.242;2022-09-28T12:30:16;20.80;48.20
43963;DHT22;29622;45.534;9.242;2022-09-28T12:40:35;21.00;48.10
43963;DHT22;29622;45.534;9.242;2022-09-28T12:45:40;21.10;47.90
43963;DHT22;29622;45.534;9.242;2022-09-28T12:55:54;21.20;47.80
43963;DHT22;29622;45.534;9.242;2022-09-28T13:01:05;21.40;47.60
43963;DHT22;29622;45.534;9.242;2022-09-28T13:12:07;21.40;47.50
43963;DHT22;29622;45.534;9.242;2022-09-28T13:27:41;21.40;48.00
43963;DHT22;29622;45.534;9.242;2022-09-28T13:32:45;21.40;47.80
43963;DHT22;29622;45.534;9.242;2022-09-28T13:37:47;21.60;47.70
43963;DHT22;29622;45.534;9.242;2022-09-28T13:43:27;21.70;47.30
43963;DHT22;29622;45.534;9.242;2022-09-28T13:48:45;21.70;47.60
43963;DHT22;29622;45.534;9.242;2022-09-28T13:54:06;21.70;47.10
43963;DHT22;29622;45.534;9.242;2022-09-28T13:59:26;21.80;47.10
43963;DHT22;29622;45.534;9.242;2022-09-28T14:05:02;21.90;46.80
43963;DHT22;29622;45.534;9.242;2022-09-28T14:10:20;22.10;46.60
43963;DHT22;29622;45.534;9.242;2022-09-28T14:20:36;22.20;46.20
43963;DHT22;29622;45.534;9.242;2022-09-28T14:25:57;22.20;46.40
43963;DHT22;29622;45.534;9.242;2022-09-28T14:31:11;22.20;46.40
43963;DHT22;29622;45.534;9.242;2022-09-28T14:36:29;22.30;46.10
43963;DHT22;29622;45.534;9.242;2022-09-28T14:41:52;22.30;46.10
43963;DHT22;29622;45.534;9.242;2022-09-28T14:52:39;22.30;46.00
43963;DHT22;29622;45.534;9.242;2022-09-28T14:57:41;22.30;46.00
43963;DHT22;29622;45.534;9.242;2022-09-28T15:02:47;22.30;46.00
43963;DHT22;29622;45.534;9.242;2022-09-28T15:07:50;22.30;46.00
43963;DHT22;29622;45.534;9.242;2022-09-28T15:12:52;22.20;46.00
43963;DHT22;29622;45.534;9.242;2022-09-28T15:23:35;21.90;46.30
43963;DHT22;29622;45.534;9.242;2022-09-28T15:28:43;21.80;46.40
43963;DHT22;29622;45.534;9.242;2022-09-28T15:33:44;21.70;46.50
43963;DHT22;29622;45.534;9.242;2022-09-28T15:39:14;21.60;46.70
43963;DHT22;29622;45.534;9.242;2022-09-28T15:54:44;21.70;46.80
43963;DHT22;29622;45.534;9.242;2022-09-28T15:59:53;21.60;46.80
43963;DHT22;29622;45.534;9.242;2022-09-28T16:05:00;21.60;46.90
43963;DHT22;29622;45.534;9.242;2022-09-28T16:15:30;21.50;47.10
43963;DHT22;29622;45.534;9.242;2022-09-28T16:20:32;21.50;47.20
43963;DHT22;29622;45.534;9.242;2022-09-28T16:25:37;21.40;47.20
43963;DHT22;29622;45.534;9.242;2022-09-28T16:31:01;21.30;47.30
43963;DHT22;29622;45.534;9.242;2022-09-28T16:36:03;21.30;47.30
43963;DHT22;29622;45.534;9.242;2022-09-28T16:41:09;21.30;47.30
43963;DHT22;29622;45.534;9.242;2022-09-28T16:46:15;21.20;47.30
43963;DHT22;29622;45.534;9.242;2022-09-28T16:51:19;21.10;47.30
43963;DHT22;29622;45.534;9.242;2022-09-28T16:56:20;21.00;47.40
43963;DHT22;29622;45.534;9.242;2022-09-28T17:01:22;20.90;47.40
43963;DHT22;29622;45.534;9.242;2022-09-28T17:06:23;20.80;47.50
43963;DHT22;29622;45.534;9.242;2022-09-28T17:11:27;20.60;47.80
43963;DHT22;29622;45.534;9.242;2022-09-28T17:16:30;20.40;48.40
43963;DHT22;29622;45.534;9.242;2022-09-28T17:21:31;20.30;48.10
43963;DHT22;29622;45.534;9.242;2022-09-28T17:26:32;20.20;48.30
43963;DHT22;29622;45.534;9.242;2022-09-28T17:31:34;20.00;48.40
43963;DHT22;29622;45.534;9.242;2022-09-28T17:36:35;19.90;48.70
43963;DHT22;29622;45.534;9.242;2022-09-28T17:41:37;19.80;48.80
43963;DHT22;29622;45.534;9.242;2022-09-28T17:46:42;19.70;49.00
43963;DHT22;29622;45.534;9.242;2022-09-28T17:51:46;19.60;49.00
43963;DHT22;29622;45.534;9.242;2022-09-28T17:56:47;19.50;49.10
43963;DHT22;29622;45.534;9.242;2022-09-28T18:01:48;19.50;49.20
43963;DHT22;29622;45.534;9.242;2022-09-28T18:06:49;19.50;49.20
43963;DHT22;29622;45.534;9.242;2022-09-28T18:11:57;19.50;49.20
43963;DHT22;29622;45.534;9.242;2022-09-28T18:17:00;19.50;49.40
43963;DHT22;29622;45.534;9.242;2022-09-28T18:22:01;19.50;49.40
43963;DHT22;29622;45.534;9.242;2022-09-28T18:27:02;19.60;49.50
43963;DHT22;29622;45.534;9.242;2022-09-28T18:32:02;19.60;49.50
43963;DHT22;29622;45.534;9.242;2022-09-28T18:37:04;19.70;49.40
43963;DHT22;29622;45.534;9.242;2022-09-28T18:42:05;19.80;49.60
43963;DHT22;29622;45.534;9.242;2022-09-28T18:47:06;19.80;49.60
43963;DHT22;29622;45.534;9.242;2022-09-28T18:52:07;19.80;49.70
43963;DHT22;29622;45.534;9.242;2022-09-28T18:57:08;19.80;49.90
43963;DHT22;29622;45.534;9.242;2022-09-28T19:02:09;19.70;50.20
43963;DHT22;29622;45.534;9.242;2022-09-28T19:07:11;19.70;50.40
43963;DHT22;29622;45.534;9.242;2022-09-28T19:12:12;19.60;50.60
43963;DHT22;29622;45.534;9.242;2022-09-28T19:17:20;19.80;50.40
43963;DHT22;29622;45.534;9.242;2022-09-28T19:22:20;19.70;50.40
43963;DHT22;29622;45.534;9.242;2022-09-28T19:27:21;19.60;50.70
43963;DHT22;29622;45.534;9.242;2022-09-28T19:32:25;19.60;50.90
43963;DHT22;29622;45.534;9.242;2022-09-28T19:37:51;19.90;51.10
43963;DHT22;29622;45.534;9.242;2022-09-28T19:42:52;20.10;50.90
43963;DHT22;29622;45.534;9.242;2022-09-28T19:48:03;19.80;51.50
43963;DHT22;29622;45.534;9.242;2022-09-28T19:53:04;19.30;52.40
43963;DHT22;29622;45.534;9.242;2022-09-28T19:58:17;19.00;53.30
43963;DHT22;29622;45.534;9.242;2022-09-28T20:03:18;18.70;53.70
43963;DHT22;29622;45.534;9.242;2022-09-28T20:08:27;18.50;54.90
43963;DHT22;29622;45.534;9.242;2022-09-28T20:13:31;18.40;54.50
43963;DHT22;29622;45.534;9.242;2022-09-28T20:18:34;18.40;54.70
43963;DHT22;29622;45.534;9.242;2022-09-28T20:23:35;18.30;55.10
43963;DHT22;29622;45.534;9.242;2022-09-28T20:28:37;18.30;55.40
43963;DHT22;29622;45.534;9.242;2022-09-28T20:33:38;18.20;55.60
43963;DHT22;29622;45.534;9.242;2022-09-28T20:38:42;18.20;55.80
43963;DHT22;29622;45.534;9.242;2022-09-28T20:43:44;18.40;56.10
43963;DHT22;29622;45.534;9.242;2022-09-28T20:48:46;18.60;55.40
43963;DHT22;29622;45.534;9.242;2022-09-28T20:53:53;18.60;55.30
43963;DHT22;29622;45.534;9.242;2022-09-28T20:58:54;18.50;55.80
43963;DHT22;29622;45.534;9.242;2022-09-28T21:03:58;18.40;56.20
43963;DHT22;29622;45.534;9.242;2022-09-28T21:08:59;18.30;56.30
43963;DHT22;29622;45.534;9.242;2022-09-28T21:14:02;18.30;56.40
43963;DHT22;29622;45.534;9.242;2022-09-28T21:19:04;18.20;56.50
43963;DHT22;29622;45.534;9.242;2022-09-28T21:24:05;18.20;56.60
43963;DHT22;29622;45.534;9.242;2022-09-28T21:29:10;18.20;56.60
43963;DHT22;29622;45.534;9.242;2022-09-28T21:34:16;18.20;57.00
43963;DHT22;29622;45.534;9.242;2022-09-28T21:39:19;18.20;56.60
43963;DHT22;29622;45.534;9.242;2022-09-28T21:44:20;18.20;56.60
43963;DHT22;29622;45.534;9.242;2022-09-28T21:49:21;18.20;56.70
43963;DHT22;29622;45.534;9.242;2022-09-28T21:54:21;18.20;56.80
43963;DHT22;29622;45.534;9.242;2022-09-28T21:59:22;18.30;56.90
43963;DHT22;29622;45.534;9.242;2022-09-28T22:04:23;18.20;56.90
43963;DHT22;29622;45.534;9.242;2022-09-28T22:09:24;18.20;57.10
43963;DHT22;29622;45.534;9.242;2022-09-28T22:14:24;18.40;57.00
43963;DHT22;29622;45.534;9.242;2022-09-28T22:19:26;18.30;57.20
43963;DHT22;29622;45.534;9.242;2022-09-28T22:24:27;18.20;57.30
43963;DHT22;29622;45.534;9.242;2022-09-28T22:29:29;18.20;57.50
43963;DHT22;29622;45.534;9.242;2022-09-28T22:34:30;18.10;57.70
43963;DHT22;29622;45.534;9.242;2022-09-28T22:39:31;18.00;57.80
43963;DHT22;29622;45.534;9.242;2022-09-28T22:44:33;17.90;57.80
43963;DHT22;29622;45.534;9.242;2022-09-28T22:49:35;17.90;58.00
43963;DHT22;29622;45.534;9.242;2022-09-28T22:54:36;17.80;58.20
43963;DHT22;29622;45.534;9.242;2022-09-28T22:59:38;17.80;58.30
43963;DHT22;29622;45.534;9.242;2022-09-28T23:04:38;17.80;58.40
43963;DHT22;29622;45.534;9.242;2022-09-28T23:09:39;17.70;58.50
43963;DHT22;29622;45.534;9.242;2022-09-28T23:14:40;17.70;58.70
43963;DHT22;29622;45.534;9.242;2022-09-28T23:19:41;17.70;58.80
43963;DHT22;29622;45.534;9.242;2022-09-28T23:24:41;17.70;58.80
43963;DHT22;29622;45.534;9.242;2022-09-28T23:29:45;17.70;59.30
43963;DHT22;29622;45.534;9.242;2022-09-28T23:34:50;17.70;58.90
43963;DHT22;29622;45.534;9.242;2022-09-28T23:39:51;17.70;58.80
43963;DHT22;29622;45.534;9.242;2022-09-28T23:44:52;17.70;58.90
43963;DHT22;29622;45.534;9.242;2022-09-28T23:49:56;17.60;59.10
43963;DHT22;29622;45.534;9.242;2022-09-28T23:55:06;17.50;59.20
